sensor_id;sensor_type;location;lat;lon;timestamp;P1;durP1;ratioP1;P2;durP2;ratioP2
83026;SDS011;72842;56.038;12.706;2024-03-07T00:02:06;4.55;;;2.88;;
83026;SDS011;72842;56.038;12.706;2024-03-07T00:04:32;5.80;;;3.30;;
83026;SDS011;72842;56.038;12.706;2024-03-07T00:06:57;5.25;;;3.38;;
83026;SDS011;72842;56.038;12.706;2024-03-07T00:09:23;4.55;;;3.55;;
83026;SDS011;72842;56.038;12.706;2024-03-07T00:11:49;5.85;;;3.13;;
83026;SDS011;72842;56.038;12.706;2024-03-07T00:14:15;6.32;;;4.00;;
83026;SDS011;72842;56.038;12.706;2024-03-07T00:16:41;4.88;;;3.08;;
83026;SDS011;72842;56.038;12.706;2024-03-07T00:19:06;6.22;;;3.80;;
83026;SDS011;72842;56.038;12.706;2024-03-07T00:21:32;5.38;;;3.25;;
83026;SDS011;72842;56.038;12.706;2024-03-07T00:23:57;4.95;;;3.38;;
83026;SDS011;72842;56.038;12.706;2024-03-07T00:26:24;5.03;;;3.22;;
83026;SDS011;72842;56.038;12.706;2024-03-07T00:28:50;4.90;;;3.42;;
83026;SDS011;72842;56.038;12.706;2024-03-07T00:31:16;4.20;;;3.33;;
83026;SDS011;72842;56.038;12.706;2024-03-07T00:33:42;5.35;;;3.75;;
83026;SDS011;72842;56.038;12.706;2024-03-07T00:36:07;5.28;;;3.42;;
83026;SDS011;72842;56.038;12.706;2024-03-07T00:38:33;5.68;;;3.78;;
83026;SDS011;72842;56.038;12.706;2024-03-07T00:40:59;5.00;;;3.63;;
83026;SDS011;72842;56.038;12.706;2024-03-07T00:43:25;4.72;;;3.30;;
83026;SDS011;72842;56.038;12.706;2024-03-07T00:45:50;5.13;;;3.53;;
83026;SDS011;72842;56.038;12.706;2024-03-07T00:48:16;4.82;;;2.92;;
83026;SDS011;72842;56.038;12.706;2024-03-07T00:50:42;5.13;;;3.53;;
83026;SDS011;72842;56.038;12.706;2024-03-07T00:53:08;5.22;;;3.20;;
83026;SDS011;72842;56.038;12.706;2024-03-07T00:55:34;6.05;;;3.85;;
83026;SDS011;72842;56.038;12.706;2024-03-07T00:57:59;5.35;;;4.00;;
83026;SDS011;72842;56.038;12.706;2024-03-07T01:00:24;6.32;;;3.65;;
83026;SDS011;72842;56.038;12.706;2024-03-07T01:02:50;4.78;;;2.92;;
83026;SDS011;72842;56.038;12.706;2024-03-07T01:05:18;4.18;;;3.33;;
83026;SDS011;72842;56.038;12.706;2024-03-07T01:07:44;5.40;;;4.05;;
83026;SDS011;72842;56.038;12.706;2024-03-07T01:10:13;4.57;;;3.90;;
83026;SDS011;72842;56.038;12.706;2024-03-07T01:12:39;5.90;;;3.65;;
83026;SDS011;72842;56.038;12.706;2024-03-07T01:15:04;5.55;;;3.10;;
83026;SDS011;72842;56.038;12.706;2024-03-07T01:17:31;5.45;;;3.28;;
83026;SDS011;72842;56.038;12.706;2024-03-07T01:19:57;6.13;;;3.40;;
83026;SDS011;72842;56.038;12.706;2024-03-07T01:22:23;4.28;;;3.20;;
83026;SDS011;72842;56.038;12.706;2024-03-07T01:24:49;4.68;;;3.47;;
83026;SDS011;72842;56.038;12.706;2024-03-07T01:27:16;4.60;;;3.60;;
83026;SDS011;72842;56.038;12.706;2024-03-07T01:29:41;5.10;;;3.22;;
83026;SDS011;72842;56.038;12.706;2024-03-07T01:32:09;4.40;;;3.25;;
83026;SDS011;72842;56.038;12.706;2024-03-07T01:34:35;5.53;;;3.75;;
83026;SDS011;72842;56.038;12.706;2024-03-07T01:37:00;4.97;;;3.38;;
83026;SDS011;72842;56.038;12.706;2024-03-07T01:39:26;4.45;;;3.55;;
83026;SDS011;72842;56.038;12.706;2024-03-07T01:41:52;5.80;;;3.20;;
83026;SDS011;72842;56.038;12.706;2024-03-07T01:44:17;4.00;;;3.03;;
83026;SDS011;72842;56.038;12.706;2024-03-07T01:46:43;5.70;;;3.28;;
83026;SDS011;72842;56.038;12.706;2024-03-07T01:49:09;4.90;;;3.28;;
83026;SDS011;72842;56.038;12.706;2024-03-07T01:51:36;4.68;;;3.38;;
83026;SDS011;72842;56.038;12.706;2024-03-07T01:54:02;4.55;;;3.00;;
83026;SDS011;72842;56.038;12.706;2024-03-07T01:56:28;5.45;;;3.50;;
83026;SDS011;72842;56.038;12.706;2024-03-07T01:58:54;3.25;;;2.95;;
83026;SDS011;72842;56.038;12.706;2024-03-07T02:01:22;4.63;;;3.22;;
83026;SDS011;72842;56.038;12.706;2024-03-07T02:03:48;5.40;;;3.47;;
83026;SDS011;72842;56.038;12.706;2024-03-07T02:06:14;5.15;;;2.97;;
83026;SDS011;72842;56.038;12.706;2024-03-07T02:08:39;5.85;;;3.08;;
83026;SDS011;72842;56.038;12.706;2024-03-07T02:11:05;4.63;;;3.08;;
83026;SDS011;72842;56.038;12.706;2024-03-07T02:13:30;4.60;;;3.45;;
83026;SDS011;72842;56.038;12.706;2024-03-07T02:15:56;4.93;;;3.22;;
83026;SDS011;72842;56.038;12.706;2024-03-07T02:18:22;4.80;;;3.28;;
83026;SDS011;72842;56.038;12.706;2024-03-07T02:20:48;5.50;;;3.42;;
83026;SDS011;72842;56.038;12.706;2024-03-07T02:23:14;4.50;;;2.75;;
83026;SDS011;72842;56.038;12.706;2024-03-07T02:25:40;3.55;;;2.67;;
83026;SDS011;72842;56.038;12.706;2024-03-07T02:28:05;4.38;;;3.20;;
83026;SDS011;72842;56.038;12.706;2024-03-07T02:30:32;4.75;;;2.88;;
83026;SDS011;72842;56.038;12.706;2024-03-07T02:33:00;4.18;;;2.80;;
83026;SDS011;72842;56.038;12.706;2024-03-07T02:35:32;5.35;;;3.22;;
83026;SDS011;72842;56.038;12.706;2024-03-07T02:37:59;3.55;;;2.95;;
83026;SDS011;72842;56.038;12.706;2024-03-07T02:40:25;5.28;;;3.47;;
83026;SDS011;72842;56.038;12.706;2024-03-07T02:42:50;4.57;;;3.38;;
83026;SDS011;72842;56.038;12.706;2024-03-07T02:45:16;5.65;;;2.78;;
83026;SDS011;72842;56.038;12.706;2024-03-07T02:47:42;3.83;;;3.28;;
83026;SDS011;72842;56.038;12.706;2024-03-07T02:50:09;6.28;;;3.67;;
83026;SDS011;72842;56.038;12.706;2024-03-07T02:52:35;4.97;;;3.08;;
83026;SDS011;72842;56.038;12.706;2024-03-07T02:55:00;4.28;;;2.90;;
83026;SDS011;72842;56.038;12.706;2024-03-07T02:57:28;3.95;;;3.00;;
83026;SDS011;72842;56.038;12.706;2024-03-07T02:59:53;5.40;;;3.35;;
83026;SDS011;72842;56.038;12.706;2024-03-07T03:02:19;3.50;;;3.03;;
83026;SDS011;72842;56.038;12.706;2024-03-07T03:04:44;4.10;;;2.95;;
83026;SDS011;72842;56.038;12.706;2024-03-07T03:07:09;4.38;;;3.15;;
83026;SDS011;72842;56.038;12.706;2024-03-07T03:09:35;4.53;;;2.70;;
83026;SDS011;72842;56.038;12.706;2024-03-07T03:12:05;4.38;;;2.97;;
83026;SDS011;72842;56.038;12.706;2024-03-07T03:14:30;4.70;;;3.08;;
83026;SDS011;72842;56.038;12.706;2024-03-07T03:16:56;4.82;;;2.88;;
83026;SDS011;72842;56.038;12.706;2024-03-07T03:19:21;4.57;;;3.22;;
83026;SDS011;72842;56.038;12.706;2024-03-07T03:21:48;3.88;;;3.15;;
83026;SDS011;72842;56.038;12.706;2024-03-07T03:24:13;4.68;;;3.40;;
83026;SDS011;72842;56.038;12.706;2024-03-07T03:26:40;3.53;;;2.75;;
83026;SDS011;72842;56.038;12.706;2024-03-07T03:29:07;5.78;;;3.45;;
83026;SDS011;72842;56.038;12.706;2024-03-07T03:31:34;4.28;;;3.88;;
83026;SDS011;72842;56.038;12.706;2024-03-07T03:34:00;4.50;;;2.75;;
83026;SDS011;72842;56.038;12.706;2024-03-07T03:36:26;4.20;;;2.75;;
83026;SDS011;72842;56.038;12.706;2024-03-07T03:38:52;4.97;;;2.97;;
83026;SDS011;72842;56.038;12.706;2024-03-07T03:41:17;4.78;;;3.42;;
83026;SDS011;72842;56.038;12.706;2024-03-07T03:43:43;4.40;;;3.25;;
83026;SDS011;72842;56.038;12.706;2024-03-07T03:46:09;3.90;;;3.05;;
83026;SDS011;72842;56.038;12.706;2024-03-07T03:48:36;4.22;;;3.00;;
83026;SDS011;72842;56.038;12.706;2024-03-07T03:51:02;7.28;;;3.72;;
83026;SDS011;72842;56.038;12.706;2024-03-07T03:53:28;3.83;;;2.95;;
83026;SDS011;72842;56.038;12.706;2024-03-07T03:55:53;5.10;;;3.58;;
83026;SDS011;72842;56.038;12.706;2024-03-07T03:58:19;4.13;;;3.22;;
83026;SDS011;72842;56.038;12.706;2024-03-07T04:00:44;4.03;;;3.53;;
83026;SDS011;72842;56.038;12.706;2024-03-07T04:03:10;4.80;;;4.10;;
83026;SDS011;72842;56.038;12.706;2024-03-07T04:05:35;5.57;;;3.35;;
83026;SDS011;72842;56.038;12.706;2024-03-07T04:08:00;5.57;;;3.30;;
83026;SDS011;72842;56.038;12.706;2024-03-07T04:10:26;5.05;;;3.40;;
83026;SDS011;72842;56.038;12.706;2024-03-07T04:12:52;5.88;;;3.85;;
83026;SDS011;72842;56.038;12.706;2024-03-07T04:15:17;5.25;;;3.75;;
83026;SDS011;72842;56.038;12.706;2024-03-07T04:17:43;4.50;;;3.42;;
83026;SDS011;72842;56.038;12.706;2024-03-07T04:20:11;4.03;;;3.05;;
83026;SDS011;72842;56.038;12.706;2024-03-07T04:22:38;4.95;;;3.20;;
83026;SDS011;72842;56.038;12.706;2024-03-07T04:25:04;4.35;;;3.30;;
83026;SDS011;72842;56.038;12.706;2024-03-07T04:27:31;5.00;;;3.60;;
83026;SDS011;72842;56.038;12.706;2024-03-07T04:29:57;4.70;;;3.88;;
83026;SDS011;72842;56.038;12.706;2024-03-07T04:32:23;5.75;;;3.35;;
83026;SDS011;72842;56.038;12.706;2024-03-07T04:34:49;4.93;;;3.67;;
83026;SDS011;72842;56.038;12.706;2024-03-07T04:37:14;4.65;;;3.72;;
83026;SDS011;72842;56.038;12.706;2024-03-07T04:39:40;3.38;;;2.97;;
83026;SDS011;72842;56.038;12.706;2024-03-07T04:42:06;5.00;;;3.40;;
83026;SDS011;72842;56.038;12.706;2024-03-07T04:44:33;5.97;;;3.78;;
83026;SDS011;72842;56.038;12.706;2024-03-07T04:47:00;5.35;;;4.10;;
83026;SDS011;72842;56.038;12.706;2024-03-07T04:49:27;4.45;;;3.60;;
83026;SDS011;72842;56.038;12.706;2024-03-07T04:51:54;5.55;;;3.92;;
83026;SDS011;72842;56.038;12.706;2024-03-07T04:54:20;5.30;;;3.60;;
83026;SDS011;72842;56.038;12.706;2024-03-07T04:56:47;4.30;;;3.67;;
83026;SDS011;72842;56.038;12.706;2024-03-07T04:59:13;5.30;;;3.67;;
83026;SDS011;72842;56.038;12.706;2024-03-07T05:01:42;4.82;;;3.53;;
83026;SDS011;72842;56.038;12.706;2024-03-07T05:04:09;6.25;;;3.55;;
83026;SDS011;72842;56.038;12.706;2024-03-07T05:06:37;5.25;;;4.03;;
83026;SDS011;72842;56.038;12.706;2024-03-07T05:09:03;4.53;;;3.53;;
83026;SDS011;72842;56.038;12.706;2024-03-07T05:11:29;6.93;;;3.88;;
83026;SDS011;72842;56.038;12.706;2024-03-07T05:13:56;4.47;;;3.35;;
83026;SDS011;72842;56.038;12.706;2024-03-07T05:16:25;4.70;;;3.75;;
83026;SDS011;72842;56.038;12.706;2024-03-07T05:18:51;4.28;;;3.40;;
83026;SDS011;72842;56.038;12.706;2024-03-07T05:21:18;4.57;;;3.40;;
83026;SDS011;72842;56.038;12.706;2024-03-07T05:24:03;5.38;;;3.10;;
83026;SDS011;72842;56.038;12.706;2024-03-07T05:26:29;3.65;;;3.22;;
83026;SDS011;72842;56.038;12.706;2024-03-07T05:29:08;4.68;;;3.45;;
83026;SDS011;72842;56.038;12.706;2024-03-07T05:31:34;5.20;;;3.50;;
83026;SDS011;72842;56.038;12.706;2024-03-07T05:34:05;4.88;;;3.33;;
83026;SDS011;72842;56.038;12.706;2024-03-07T05:36:36;5.90;;;3.42;;
83026;SDS011;72842;56.038;12.706;2024-03-07T05:39:09;5.50;;;3.60;;
83026;SDS011;72842;56.038;12.706;2024-03-07T05:41:36;5.22;;;3.95;;
83026;SDS011;72842;56.038;12.706;2024-03-07T05:44:02;5.97;;;3.72;;
83026;SDS011;72842;56.038;12.706;2024-03-07T05:46:29;7.22;;;3.78;;
83026;SDS011;72842;56.038;12.706;2024-03-07T05:48:55;5.20;;;3.42;;
83026;SDS011;72842;56.038;12.706;2024-03-07T05:51:25;4.07;;;3.15;;
83026;SDS011;72842;56.038;12.706;2024-03-07T05:53:50;4.40;;;3.60;;
83026;SDS011;72842;56.038;12.706;2024-03-07T05:56:16;4.63;;;3.30;;
83026;SDS011;72842;56.038;12.706;2024-03-07T05:58:42;4.72;;;3.22;;
83026;SDS011;72842;56.038;12.706;2024-03-07T06:01:07;6.38;;;3.70;;
83026;SDS011;72842;56.038;12.706;2024-03-07T06:03:36;4.65;;;3.15;;
83026;SDS011;72842;56.038;12.706;2024-03-07T06:06:02;5.13;;;4.32;;
83026;SDS011;72842;56.038;12.706;2024-03-07T06:08:29;5.25;;;3.65;;
83026;SDS011;72842;56.038;12.706;2024-03-07T06:10:55;5.72;;;4.57;;
83026;SDS011;72842;56.038;12.706;2024-03-07T06:13:20;5.68;;;2.92;;
83026;SDS011;72842;56.038;12.706;2024-03-07T06:15:46;4.30;;;3.70;;
83026;SDS011;72842;56.038;12.706;2024-03-07T06:18:12;6.53;;;3.67;;
83026;SDS011;72842;56.038;12.706;2024-03-07T06:20:42;6.65;;;3.58;;
83026;SDS011;72842;56.038;12.706;2024-03-07T06:23:09;5.78;;;3.47;;
83026;SDS011;72842;56.038;12.706;2024-03-07T06:25:37;4.72;;;3.28;;
83026;SDS011;72842;56.038;12.706;2024-03-07T06:28:11;4.65;;;3.30;;
83026;SDS011;72842;56.038;12.706;2024-03-07T06:30:40;4.28;;;3.65;;
83026;SDS011;72842;56.038;12.706;2024-03-07T06:33:07;5.38;;;4.28;;
83026;SDS011;72842;56.038;12.706;2024-03-07T06:35:33;4.78;;;3.60;;
83026;SDS011;72842;56.038;12.706;2024-03-07T06:38:02;5.55;;;3.88;;
83026;SDS011;72842;56.038;12.706;2024-03-07T06:40:28;5.93;;;3.30;;
83026;SDS011;72842;56.038;12.706;2024-03-07T06:42:54;5.97;;;3.67;;
83026;SDS011;72842;56.038;12.706;2024-03-07T06:45:20;5.80;;;3.25;;
83026;SDS011;72842;56.038;12.706;2024-03-07T06:47:46;4.60;;;2.83;;
83026;SDS011;72842;56.038;12.706;2024-03-07T06:50:12;5.10;;;3.25;;
83026;SDS011;72842;56.038;12.706;2024-03-07T06:52:44;6.72;;;3.10;;
83026;SDS011;72842;56.038;12.706;2024-03-07T06:55:16;4.80;;;3.22;;
83026;SDS011;72842;56.038;12.706;2024-03-07T06:57:43;5.85;;;3.55;;
83026;SDS011;72842;56.038;12.706;2024-03-07T07:00:10;5.55;;;3.28;;
83026;SDS011;72842;56.038;12.706;2024-03-07T07:02:40;5.57;;;3.58;;
83026;SDS011;72842;56.038;12.706;2024-03-07T07:05:09;4.60;;;2.72;;
83026;SDS011;72842;56.038;12.706;2024-03-07T07:07:37;5.50;;;3.50;;
83026;SDS011;72842;56.038;12.706;2024-03-07T07:10:04;4.15;;;2.97;;
83026;SDS011;72842;56.038;12.706;2024-03-07T07:12:33;5.10;;;4.28;;
83026;SDS011;72842;56.038;12.706;2024-03-07T07:15:00;4.05;;;2.90;;
83026;SDS011;72842;56.038;12.706;2024-03-07T07:17:25;3.33;;;2.75;;
83026;SDS011;72842;56.038;12.706;2024-03-07T07:19:54;4.63;;;2.45;;
83026;SDS011;72842;56.038;12.706;2024-03-07T07:22:21;4.70;;;2.97;;
83026;SDS011;72842;56.038;12.706;2024-03-07T07:24:46;4.32;;;2.63;;
83026;SDS011;72842;56.038;12.706;2024-03-07T07:27:12;3.35;;;2.38;;
83026;SDS011;72842;56.038;12.706;2024-03-07T07:29:37;3.88;;;2.88;;
83026;SDS011;72842;56.038;12.706;2024-03-07T07:32:04;4.15;;;2.70;;
83026;SDS011;72842;56.038;12.706;2024-03-07T07:34:30;3.50;;;2.60;;
83026;SDS011;72842;56.038;12.706;2024-03-07T07:36:55;3.60;;;2.50;;
83026;SDS011;72842;56.038;12.706;2024-03-07T07:39:22;4.28;;;3.58;;
83026;SDS011;72842;56.038;12.706;2024-03-07T07:41:47;3.85;;;2.58;;
83026;SDS011;72842;56.038;12.706;2024-03-07T07:44:13;3.38;;;2.53;;
83026;SDS011;72842;56.038;12.706;2024-03-07T07:46:39;2.97;;;2.35;;
83026;SDS011;72842;56.038;12.706;2024-03-07T07:49:05;2.55;;;1.88;;
83026;SDS011;72842;56.038;12.706;2024-03-07T07:51:31;4.10;;;2.38;;
83026;SDS011;72842;56.038;12.706;2024-03-07T07:53:57;5.20;;;2.38;;
83026;SDS011;72842;56.038;12.706;2024-03-07T07:56:22;2.90;;;2.10;;
83026;SDS011;72842;56.038;12.706;2024-03-07T07:58:49;3.67;;;2.00;;
83026;SDS011;72842;56.038;12.706;2024-03-07T08:01:16;5.43;;;1.83;;
83026;SDS011;72842;56.038;12.706;2024-03-07T08:03:45;3.20;;;2.53;;
83026;SDS011;72842;56.038;12.706;2024-03-07T08:06:10;3.45;;;2.10;;
83026;SDS011;72842;56.038;12.706;2024-03-07T08:08:36;2.65;;;2.13;;
83026;SDS011;72842;56.038;12.706;2024-03-07T08:11:01;3.72;;;2.30;;
83026;SDS011;72842;56.038;12.706;2024-03-07T08:13:27;2.65;;;1.80;;
83026;SDS011;72842;56.038;12.706;2024-03-07T08:15:52;3.88;;;2.25;;
83026;SDS011;72842;56.038;12.706;2024-03-07T08:18:21;3.67;;;2.15;;
83026;SDS011;72842;56.038;12.706;2024-03-07T08:20:46;2.65;;;1.75;;
83026;SDS011;72842;56.038;12.706;2024-03-07T08:23:12;2.03;;;1.80;;
83026;SDS011;72842;56.038;12.706;2024-03-07T08:25:38;2.72;;;2.00;;
83026;SDS011;72842;56.038;12.706;2024-03-07T08:28:07;2.53;;;1.73;;
83026;SDS011;72842;56.038;12.706;2024-03-07T08:30:33;3.35;;;2.42;;
83026;SDS011;72842;56.038;12.706;2024-03-07T08:33:00;2.55;;;1.80;;
83026;SDS011;72842;56.038;12.706;2024-03-07T08:35:27;3.42;;;1.77;;
83026;SDS011;72842;56.038;12.706;2024-03-07T08:37:54;2.83;;;1.95;;
83026;SDS011;72842;56.038;12.706;2024-03-07T08:40:21;2.53;;;1.90;;
83026;SDS011;72842;56.038;12.706;2024-03-07T08:42:48;3.28;;;2.10;;
83026;SDS011;72842;56.038;12.706;2024-03-07T08:45:19;2.78;;;1.98;;
83026;SDS011;72842;56.038;12.706;2024-03-07T08:47:49;2.80;;;1.63;;
83026;SDS011;72842;56.038;12.706;2024-03-07T08:50:16;2.50;;;1.85;;
83026;SDS011;72842;56.038;12.706;2024-03-07T08:52:43;3.13;;;2.10;;
83026;SDS011;72842;56.038;12.706;2024-03-07T08:55:09;3.53;;;1.65;;
83026;SDS011;72842;56.038;12.706;2024-03-07T08:57:37;5.60;;;1.70;;
83026;SDS011;72842;56.038;12.706;2024-03-07T09:00:04;4.15;;;1.67;;
83026;SDS011;72842;56.038;12.706;2024-03-07T09:02:34;4.47;;;2.00;;
83026;SDS011;72842;56.038;12.706;2024-03-07T09:05:03;4.18;;;1.77;;
83026;SDS011;72842;56.038;12.706;2024-03-07T09:07:30;3.90;;;1.75;;
83026;SDS011;72842;56.038;12.706;2024-03-07T09:09:56;3.80;;;1.90;;
83026;SDS011;72842;56.038;12.706;2024-03-07T09:12:21;5.38;;;2.03;;
83026;SDS011;72842;56.038;12.706;2024-03-07T09:14:47;4.88;;;2.42;;
83026;SDS011;72842;56.038;12.706;2024-03-07T09:17:13;3.38;;;1.33;;
83026;SDS011;72842;56.038;12.706;2024-03-07T09:19:38;5.63;;;2.03;;
83026;SDS011;72842;56.038;12.706;2024-03-07T09:22:04;3.58;;;1.88;;
83026;SDS011;72842;56.038;12.706;2024-03-07T09:24:33;4.82;;;2.00;;
83026;SDS011;72842;56.038;12.706;2024-03-07T09:26:59;5.40;;;1.80;;
83026;SDS011;72842;56.038;12.706;2024-03-07T09:29:25;6.18;;;2.03;;
83026;SDS011;72842;56.038;12.706;2024-03-07T09:31:52;3.53;;;1.83;;
83026;SDS011;72842;56.038;12.706;2024-03-07T09:34:18;3.22;;;1.77;;
83026;SDS011;72842;56.038;12.706;2024-03-07T09:36:48;3.40;;;1.90;;
83026;SDS011;72842;56.038;12.706;2024-03-07T09:39:16;3.22;;;1.85;;
83026;SDS011;72842;56.038;12.706;2024-03-07T09:41:42;3.88;;;1.80;;
83026;SDS011;72842;56.038;12.706;2024-03-07T09:44:14;2.92;;;1.75;;
83026;SDS011;72842;56.038;12.706;2024-03-07T09:46:47;2.53;;;1.65;;
83026;SDS011;72842;56.038;12.706;2024-03-07T09:49:14;2.92;;;1.70;;
83026;SDS011;72842;56.038;12.706;2024-03-07T09:51:40;2.72;;;1.80;;
83026;SDS011;72842;56.038;12.706;2024-03-07T09:54:08;2.70;;;1.33;;
83026;SDS011;72842;56.038;12.706;2024-03-07T09:56:35;3.13;;;1.85;;
83026;SDS011;72842;56.038;12.706;2024-03-07T09:59:02;3.35;;;1.45;;
83026;SDS011;72842;56.038;12.706;2024-03-07T10:01:29;1.48;;;1.38;;
83026;SDS011;72842;56.038;12.706;2024-03-07T10:03:59;2.67;;;2.03;;
83026;SDS011;72842;56.038;12.706;2024-03-07T10:06:39;2.58;;;1.63;;
83026;SDS011;72842;56.038;12.706;2024-03-07T10:09:10;2.95;;;1.70;;
83026;SDS011;72842;56.038;12.706;2024-03-07T10:11:38;2.83;;;1.60;;
83026;SDS011;72842;56.038;12.706;2024-03-07T10:14:06;3.03;;;1.95;;
83026;SDS011;72842;56.038;12.706;2024-03-07T10:16:32;2.00;;;1.48;;
83026;SDS011;72842;56.038;12.706;2024-03-07T10:18:57;1.92;;;1.60;;
83026;SDS011;72842;56.038;12.706;2024-03-07T10:21:25;2.67;;;1.60;;
83026;SDS011;72842;56.038;12.706;2024-03-07T10:24:02;3.25;;;1.48;;
83026;SDS011;72842;56.038;12.706;2024-03-07T10:26:32;2.28;;;1.52;;
83026;SDS011;72842;56.038;12.706;2024-03-07T10:28:59;2.83;;;1.80;;
83026;SDS011;72842;56.038;12.706;2024-03-07T10:31:28;2.60;;;1.50;;
83026;SDS011;72842;56.038;12.706;2024-03-07T10:36:23;4.10;;;2.08;;
83026;SDS011;72842;56.038;12.706;2024-03-07T10:38:50;3.80;;;2.42;;
83026;SDS011;72842;56.038;12.706;2024-03-07T10:41:16;4.78;;;2.50;;
83026;SDS011;72842;56.038;12.706;2024-03-07T10:43:43;5.65;;;2.67;;
83026;SDS011;72842;56.038;12.706;2024-03-07T10:46:11;6.65;;;3.22;;
83026;SDS011;72842;56.038;12.706;2024-03-07T10:48:38;5.35;;;4.10;;
83026;SDS011;72842;56.038;12.706;2024-03-07T10:59:33;5.38;;;2.80;;
83026;SDS011;72842;56.038;12.706;2024-03-07T11:04:38;5.15;;;3.28;;
83026;SDS011;72842;56.038;12.706;2024-03-07T11:07:04;3.35;;;2.50;;
83026;SDS011;72842;56.038;12.706;2024-03-07T11:09:31;3.67;;;2.65;;
83026;SDS011;72842;56.038;12.706;2024-03-07T11:12:01;5.47;;;3.33;;
83026;SDS011;72842;56.038;12.706;2024-03-07T11:14:32;3.53;;;2.60;;
83026;SDS011;72842;56.038;12.706;2024-03-07T11:17:02;4.80;;;2.60;;
83026;SDS011;72842;56.038;12.706;2024-03-07T11:19:29;4.53;;;2.92;;
83026;SDS011;72842;56.038;12.706;2024-03-07T11:22:00;5.85;;;2.90;;
83026;SDS011;72842;56.038;12.706;2024-03-07T11:24:27;3.90;;;2.33;;
83026;SDS011;72842;56.038;12.706;2024-03-07T11:26:54;4.35;;;2.53;;
83026;SDS011;72842;56.038;12.706;2024-03-07T11:32:23;14.75;;;6.55;;
83026;SDS011;72842;56.038;12.706;2024-03-07T11:34:48;19.92;;;8.23;;
83026;SDS011;72842;56.038;12.706;2024-03-07T11:39:47;12.68;;;7.63;;
83026;SDS011;72842;56.038;12.706;2024-03-07T11:44:51;16.38;;;7.70;;
83026;SDS011;72842;56.038;12.706;2024-03-07T11:47:17;17.33;;;7.63;;
83026;SDS011;72842;56.038;12.706;2024-03-07T11:49:44;13.50;;;6.50;;
83026;SDS011;72842;56.038;12.706;2024-03-07T11:52:13;17.15;;;7.50;;
83026;SDS011;72842;56.038;12.706;2024-03-07T11:54:41;16.35;;;7.40;;
83026;SDS011;72842;56.038;12.706;2024-03-07T11:57:20;14.60;;;6.13;;
83026;SDS011;72842;56.038;12.706;2024-03-07T11:59:51;13.48;;;6.60;;
83026;SDS011;72842;56.038;12.706;2024-03-07T12:02:18;11.48;;;6.03;;
83026;SDS011;72842;56.038;12.706;2024-03-07T12:04:49;14.00;;;6.60;;
83026;SDS011;72842;56.038;12.706;2024-03-07T12:07:15;13.13;;;6.40;;
83026;SDS011;72842;56.038;12.706;2024-03-07T12:09:43;8.45;;;5.28;;
83026;SDS011;72842;56.038;12.706;2024-03-07T12:12:15;10.63;;;5.32;;
83026;SDS011;72842;56.038;12.706;2024-03-07T12:14:42;12.05;;;5.72;;
83026;SDS011;72842;56.038;12.706;2024-03-07T12:17:07;11.15;;;5.45;;
83026;SDS011;72842;56.038;12.706;2024-03-07T12:19:34;12.18;;;5.38;;
83026;SDS011;72842;56.038;12.706;2024-03-07T12:22:03;9.10;;;4.75;;
83026;SDS011;72842;56.038;12.706;2024-03-07T12:24:37;11.05;;;4.68;;
83026;SDS011;72842;56.038;12.706;2024-03-07T12:27:09;12.20;;;4.97;;
83026;SDS011;72842;56.038;12.706;2024-03-07T12:29:37;9.00;;;4.65;;
83026;SDS011;72842;56.038;12.706;2024-03-07T12:32:07;9.38;;;4.55;;
83026;SDS011;72842;56.038;12.706;2024-03-07T12:34:35;7.20;;;4.32;;
83026;SDS011;72842;56.038;12.706;2024-03-07T12:37:06;5.60;;;4.10;;
83026;SDS011;72842;56.038;12.706;2024-03-07T12:39:33;12.10;;;4.63;;
83026;SDS011;72842;56.038;12.706;2024-03-07T12:42:04;7.32;;;5.10;;
83026;SDS011;72842;56.038;12.706;2024-03-07T12:44:41;9.40;;;4.65;;
83026;SDS011;72842;56.038;12.706;2024-03-07T12:47:13;8.95;;;4.18;;
83026;SDS011;72842;56.038;12.706;2024-03-07T12:49:45;6.70;;;3.80;;
83026;SDS011;72842;56.038;12.706;2024-03-07T12:52:11;7.22;;;4.40;;
83026;SDS011;72842;56.038;12.706;2024-03-07T12:54:41;5.55;;;3.35;;
83026;SDS011;72842;56.038;12.706;2024-03-07T12:57:07;5.38;;;3.78;;
83026;SDS011;72842;56.038;12.706;2024-03-07T12:59:37;8.38;;;4.25;;
83026;SDS011;72842;56.038;12.706;2024-03-07T13:02:07;5.50;;;3.42;;
83026;SDS011;72842;56.038;12.706;2024-03-07T13:04:33;5.97;;;4.85;;
83026;SDS011;72842;56.038;12.706;2024-03-07T13:06:59;7.05;;;3.92;;
83026;SDS011;72842;56.038;12.706;2024-03-07T13:09:29;6.38;;;3.70;;
83026;SDS011;72842;56.038;12.706;2024-03-07T13:11:58;6.55;;;3.47;;
83026;SDS011;72842;56.038;12.706;2024-03-07T13:17:00;5.68;;;3.35;;
83026;SDS011;72842;56.038;12.706;2024-03-07T13:19:28;6.03;;;3.88;;
83026;SDS011;72842;56.038;12.706;2024-03-07T13:21:55;4.40;;;3.17;;
83026;SDS011;72842;56.038;12.706;2024-03-07T13:24:21;5.22;;;3.75;;
83026;SDS011;72842;56.038;12.706;2024-03-07T13:26:47;5.95;;;3.50;;
83026;SDS011;72842;56.038;12.706;2024-03-07T13:29:15;5.18;;;3.05;;
83026;SDS011;72842;56.038;12.706;2024-03-07T13:31:42;6.10;;;3.35;;
83026;SDS011;72842;56.038;12.706;2024-03-07T13:34:09;6.25;;;3.47;;
83026;SDS011;72842;56.038;12.706;2024-03-07T13:36:41;4.72;;;3.55;;
83026;SDS011;72842;56.038;12.706;2024-03-07T13:39:11;5.30;;;3.05;;
83026;SDS011;72842;56.038;12.706;2024-03-07T13:41:39;5.82;;;2.92;;
83026;SDS011;72842;56.038;12.706;2024-03-07T13:44:05;4.70;;;2.92;;
83026;SDS011;72842;56.038;12.706;2024-03-07T13:46:31;6.90;;;4.22;;
83026;SDS011;72842;56.038;12.706;2024-03-07T13:49:01;3.63;;;2.60;;
83026;SDS011;72842;56.038;12.706;2024-03-07T13:51:38;5.72;;;3.45;;
83026;SDS011;72842;56.038;12.706;2024-03-07T13:54:15;3.38;;;2.58;;
83026;SDS011;72842;56.038;12.706;2024-03-07T14:10:23;4.88;;;3.58;;
83026;SDS011;72842;56.038;12.706;2024-03-07T14:13:34;5.63;;;2.83;;
83026;SDS011;72842;56.038;12.706;2024-03-07T14:16:18;5.45;;;3.25;;
83026;SDS011;72842;56.038;12.706;2024-03-07T14:27:34;6.13;;;3.85;;
83026;SDS011;72842;56.038;12.706;2024-03-07T14:32:48;3.95;;;2.95;;
83026;SDS011;72842;56.038;12.706;2024-03-07T14:35:57;8.00;;;3.10;;
83026;SDS011;72842;56.038;12.706;2024-03-07T14:44:08;3.90;;;2.72;;
83026;SDS011;72842;56.038;12.706;2024-03-07T14:46:35;3.63;;;2.95;;
83026;SDS011;72842;56.038;12.706;2024-03-07T14:49:02;4.70;;;3.00;;
83026;SDS011;72842;56.038;12.706;2024-03-07T14:51:27;6.00;;;3.35;;
83026;SDS011;72842;56.038;12.706;2024-03-07T14:53:53;6.03;;;3.03;;
83026;SDS011;72842;56.038;12.706;2024-03-07T14:56:18;5.50;;;2.80;;
83026;SDS011;72842;56.038;12.706;2024-03-07T14:58:45;6.03;;;3.90;;
83026;SDS011;72842;56.038;12.706;2024-03-07T15:01:12;5.30;;;3.42;;
83026;SDS011;72842;56.038;12.706;2024-03-07T15:03:38;5.95;;;3.55;;
83026;SDS011;72842;56.038;12.706;2024-03-07T15:06:06;6.00;;;3.50;;
83026;SDS011;72842;56.038;12.706;2024-03-07T15:08:34;4.70;;;3.65;;
83026;SDS011;72842;56.038;12.706;2024-03-07T15:11:14;5.63;;;3.38;;
83026;SDS011;72842;56.038;12.706;2024-03-07T15:13:46;6.28;;;3.92;;
83026;SDS011;72842;56.038;12.706;2024-03-07T15:16:12;5.82;;;3.58;;
83026;SDS011;72842;56.038;12.706;2024-03-07T15:18:38;5.03;;;4.40;;
83026;SDS011;72842;56.038;12.706;2024-03-07T15:21:04;5.45;;;3.72;;
83026;SDS011;72842;56.038;12.706;2024-03-07T15:23:31;5.90;;;3.65;;
83026;SDS011;72842;56.038;12.706;2024-03-07T15:25:56;6.07;;;3.40;;
83026;SDS011;72842;56.038;12.706;2024-03-07T15:28:22;7.07;;;4.50;;
83026;SDS011;72842;56.038;12.706;2024-03-07T15:30:49;4.85;;;3.22;;